Time;durP1;ratioP1;P1;durP2;ratioP2;P2;SDS_P1;SDS_P2;PMS_P1;PMS_P2;Temp;Humidity;BMP_temperature;BMP_pressure;BME280_temperature;BME280_humidity;BME280_pressure;Samples;Min_cycle;Max_cycle;Signal;HPM_P1;HPM_P2
2022/10/15 00:01:57;;;;;;;12.30;7.55;;;13.90;99.90;;;;;;10411169;28;20018;-64
2022/10/15 00:06:58;;;;;;;12.48;7.15;;;13.90;99.90;;;;;;10411404;28;20136;-64
2022/10/15 00:11:59;;;;;;;13.73;8.07;;;13.90;99.90;;;;;;10408920;28;20120;-64
2022/10/15 00:17:00;;;;;;;12.55;7.15;;;13.90;99.90;;;;;;10412227;28;20361;-64
2022/10/15 00:22:01;;;;;;;12.88;7.18;;;13.90;99.90;;;;;;10414511;28;20027;-64
2022/10/15 00:27:02;;;;;;;13.45;7.70;;;13.90;99.90;;;;;;10417251;28;20525;-63
2022/10/15 00:32:02;;;;;;;14.48;7.70;;;13.90;99.90;;;;;;10417752;28;20025;-64
2022/10/15 00:37:03;;;;;;;12.85;7.35;;;13.90;99.90;;;;;;10423250;28;20026;-64
2022/10/15 00:42:04;;;;;;;15.00;7.90;;;13.90;99.90;;;;;;10422623;28;20390;-64
2022/10/15 00:47:19;;;;;;;13.38;7.80;;;13.90;99.90;;;;;;10422116;28;20046;-64
2022/10/15 00:52:28;;;;;;;16.23;9.18;;;13.90;99.90;;;;;;10418964;28;20566;-64
2022/10/15 00:57:30;;;;;;;15.80;8.88;;;13.90;99.90;;;;;;10416142;28;20520;-64
2022/10/15 01:02:32;;;;;;;12.32;8.07;;;13.80;99.90;;;;;;10418903;28;20025;-64
2022/10/15 01:07:33;;;;;;;14.18;8.40;;;13.80;99.90;;;;;;10416420;28;20095;-63
2022/10/15 01:12:59;;;;;;;14.70;8.30;;;13.80;99.90;;;;;;10417375;28;20277;-63
2022/10/15 01:18:27;;;;;;;14.75;7.80;;;13.80;99.90;;;;;;10418755;28;20431;-64
2022/10/15 01:23:49;;;;;;;12.43;8.13;;;13.80;99.90;;;;;;10423073;28;20422;-64
2022/10/15 01:29:06;;;;;;;13.48;8.27;;;13.80;99.90;;;;;;10418839;28;20045;-64
2022/10/15 01:34:18;;;;;;;14.07;8.45;;;13.80;99.90;;;;;;10417330;28;20029;-64
2022/10/15 01:39:27;;;;;;;14.07;7.82;;;13.80;99.90;;;;;;10414125;28;20025;-64
2022/10/15 01:44:35;;;;;;;15.45;8.75;;;13.80;99.90;;;;;;10416927;28;20021;-64
2022/10/15 01:49:41;;;;;;;14.43;8.30;;;13.80;99.90;;;;;;10403512;28;20043;-63
2022/10/15 01:54:44;;;;;;;12.65;8.02;;;13.80;99.90;;;;;;10415011;28;20277;-64
2022/10/15 01:59:45;;;;;;;13.20;7.65;;;13.80;99.90;;;;;;10415404;28;20477;-64
2022/10/15 02:04:46;;;;;;;12.68;8.15;;;13.80;99.90;;;;;;10417993;28;20125;-64
2022/10/15 02:10:01;;;;;;;12.45;7.57;;;13.80;99.90;;;;;;10413313;28;20061;-64
2022/10/15 02:15:20;;;;;;;11.75;8.02;;;13.80;99.90;;;;;;10411542;28;20030;-64
2022/10/15 02:20:34;;;;;;;12.63;7.75;;;13.80;99.90;;;;;;10418730;28;20028;-65
2022/10/15 02:25:36;;;;;;;13.75;8.02;;;13.80;99.90;;;;;;10417635;28;20057;-64
2022/10/15 02:30:39;;;;;;;11.75;7.85;;;13.80;99.90;;;;;;10414469;28;20088;-64
2022/10/15 02:35:42;;;;;;;13.85;7.70;;;13.80;99.90;;;;;;10412989;28;20071;-64
2022/10/15 02:40:44;;;;;;;12.95;8.23;;;13.80;99.90;;;;;;10400776;28;20225;-64
2022/10/15 02:45:44;;;;;;;14.23;7.90;;;13.80;99.90;;;;;;10396481;28;20394;-64
2022/10/15 02:50:45;;;;;;;12.35;7.55;;;13.80;99.90;;;;;;10417016;28;20030;-64
2022/10/15 02:55:46;;;;;;;12.90;8.60;;;13.70;99.90;;;;;;10412437;28;20040;-63
2022/10/15 03:00:48;;;;;;;10.25;6.80;;;13.70;99.90;;;;;;10415972;28;20022;-64
2022/10/15 03:05:49;;;;;;;11.40;6.78;;;13.80;99.90;;;;;;10412716;28;20072;-65
2022/10/15 03:10:49;;;;;;;13.75;7.35;;;13.70;99.90;;;;;;10409083;28;20088;-64
2022/10/15 03:15:50;;;;;;;12.27;7.03;;;13.70;99.90;;;;;;10410581;28;20025;-63
2022/10/15 03:20:55;;;;;;;14.60;7.57;;;13.70;99.90;;;;;;10416900;28;20517;-64
2022/10/15 03:25:55;;;;;;;12.93;7.25;;;13.70;99.90;;;;;;10414541;28;20371;-64
2022/10/15 03:30:56;;;;;;;13.88;7.05;;;13.70;99.90;;;;;;10411497;28;20033;-64
2022/10/15 03:35:57;;;;;;;15.00;7.60;;;13.70;99.90;;;;;;10412471;28;20026;-64
2022/10/15 03:40:57;;;;;;;12.15;7.13;;;13.70;99.90;;;;;;10412807;28;20040;-63
2022/10/15 03:46:02;;;;;;;12.88;7.53;;;13.70;99.90;;;;;;10412708;28;20026;-63
2022/10/15 03:51:03;;;;;;;11.50;7.30;;;13.70;99.90;;;;;;10412983;28;20490;-64
2022/10/15 03:56:05;;;;;;;15.57;8.13;;;13.70;99.90;;;;;;10410432;28;20028;-63
2022/10/15 04:01:14;;;;;;;13.57;8.13;;;13.70;99.90;;;;;;10410411;28;20025;-64
2022/10/15 04:06:14;;;;;;;14.85;8.45;;;13.70;99.90;;;;;;10409208;28;20174;-64
2022/10/15 04:11:15;;;;;;;13.65;7.80;;;13.70;99.90;;;;;;10410233;28;20471;-64
2022/10/15 04:16:17;;;;;;;15.88;8.85;;;13.70;99.90;;;;;;10403995;28;20076;-63
2022/10/15 04:21:17;;;;;;;13.93;7.93;;;13.70;99.90;;;;;;10420015;28;20029;-64
2022/10/15 04:26:18;;;;;;;15.23;8.57;;;13.70;99.90;;;;;;10410219;28;20026;-64
2022/10/15 04:31:19;;;;;;;17.98;9.40;;;13.70;99.90;;;;;;10411101;28;20452;-64
2022/10/15 04:36:19;;;;;;;16.75;8.65;;;13.70;99.90;;;;;;10411969;28;20043;-64
2022/10/15 04:41:20;;;;;;;15.10;8.25;;;13.70;99.90;;;;;;10410486;28;20018;-64
2022/10/15 04:46:21;;;;;;;16.55;9.13;;;13.60;99.90;;;;;;10412833;28;20026;-64
2022/10/15 04:51:24;;;;;;;17.00;9.50;;;13.70;99.90;;;;;;10412989;28;20049;-63
2022/10/15 04:56:24;;;;;;;17.50;10.00;;;13.60;99.90;;;;;;10411403;28;20036;-63
2022/10/15 05:01:25;;;;;;;19.30;11.00;;;13.60;99.90;;;;;;10412181;28;20022;-64
2022/10/15 05:06:26;;;;;;;21.20;9.60;;;13.70;99.90;;;;;;10414283;28;20095;-64
2022/10/15 05:11:27;;;;;;;22.98;11.07;;;13.60;99.90;;;;;;10395452;28;20025;-64
2022/10/15 05:16:29;;;;;;;19.98;9.48;;;13.60;99.90;;;;;;10417188;28;20095;-64
2022/10/15 05:21:31;;;;;;;19.30;10.32;;;13.60;99.90;;;;;;10422493;28;20052;-63
2022/10/15 05:26:32;;;;;;;20.42;10.45;;;13.70;99.90;;;;;;10416276;28;20013;-65
2022/10/15 05:31:33;;;;;;;21.58;10.45;;;13.60;99.90;;;;;;10416588;28;20049;-64
2022/10/15 05:36:35;;;;;;;19.08;10.38;;;13.70;99.90;;;;;;10421456;28;20465;-64
2022/10/15 05:41:36;;;;;;;20.60;10.93;;;13.60;99.90;;;;;;10416993;28;20064;-64
2022/10/15 05:46:37;;;;;;;18.70;9.90;;;13.60;99.90;;;;;;10418875;28;20453;-64
2022/10/15 05:51:38;;;;;;;22.73;11.20;;;13.60;99.90;;;;;;10416216;28;20033;-64
2022/10/15 05:56:38;;;;;;;21.02;11.20;;;13.60;99.90;;;;;;10415062;28;20021;-64
2022/10/15 06:01:39;;;;;;;22.65;10.63;;;13.60;99.90;;;;;;10410230;28;20529;-64
2022/10/15 06:06:40;;;;;;;21.73;11.13;;;13.60;99.90;;;;;;10415913;28;20033;-64
2022/10/15 06:11:41;;;;;;;22.73;11.55;;;13.60;99.90;;;;;;10418360;28;20040;-64
2022/10/15 06:16:42;;;;;;;24.33;12.55;;;13.60;99.90;;;;;;10412947;28;20032;-64
2022/10/15 06:21:43;;;;;;;24.77;12.20;;;13.60;99.90;;;;;;10423357;28;20040;-63
2022/10/15 06:26:43;;;;;;;25.30;12.75;;;13.60;99.90;;;;;;10414331;28;20026;-64
2022/10/15 06:31:44;;;;;;;26.50;12.63;;;13.60;99.90;;;;;;10411704;28;20038;-64
2022/10/15 06:36:45;;;;;;;24.23;12.05;;;13.60;99.90;;;;;;10390137;28;20090;-64
2022/10/15 06:41:45;;;;;;;25.08;11.98;;;13.60;99.90;;;;;;10336306;28;20331;-64
2022/10/15 06:46:46;;;;;;;25.83;12.98;;;13.60;99.90;;;;;;10338192;28;20021;-64
2022/10/15 06:51:47;;;;;;;20.45;11.48;;;13.60;99.90;;;;;;10336956;28;20052;-63
2022/10/15 06:56:47;;;;;;;22.98;12.30;;;13.60;99.90;;;;;;10333470;28;20572;-63
2022/10/15 07:01:48;;;;;;;23.40;12.38;;;13.70;99.90;;;;;;10337136;28;20033;-65
2022/10/15 07:06:49;;;;;;;23.02;13.00;;;13.70;99.90;;;;;;10328822;28;20395;-64
2022/10/15 07:11:51;;;;;;;24.98;12.77;;;13.70;99.90;;;;;;10332326;28;20102;-65
2022/10/15 07:16:51;;;;;;;24.15;12.45;;;13.70;99.90;;;;;;10330901;28;20040;-63
2022/10/15 07:21:52;;;;;;;25.50;11.30;;;13.70;99.90;;;;;;10330111;28;20203;-63
2022/10/15 07:26:53;;;;;;;25.52;13.23;;;13.70;99.90;;;;;;10326669;28;20029;-62
2022/10/15 07:31:53;;;;;;;24.88;12.82;;;13.70;99.90;;;;;;10331402;28;20525;-63
2022/10/15 07:36:54;;;;;;;24.40;13.10;;;13.70;99.90;;;;;;10328564;28;20021;-63
2022/10/15 07:41:55;;;;;;;21.63;12.70;;;13.70;99.90;;;;;;10335750;28;20664;-63
2022/10/15 07:46:55;;;;;;;29.33;13.93;;;13.70;99.90;;;;;;10333887;28;20034;-62
2022/10/15 07:51:56;;;;;;;24.52;12.65;;;13.70;99.90;;;;;;10340781;28;20681;-63
2022/10/15 07:56:57;;;;;;;24.95;13.05;;;13.70;99.90;;;;;;10333564;28;20108;-62
2022/10/15 08:02:17;;;;;;;26.10;12.73;;;13.70;99.90;;;;;;10338158;28;20035;-63
2022/10/15 08:07:18;;;;;;;27.58;13.85;;;13.70;99.90;;;;;;10335814;28;20407;-62
2022/10/15 08:12:19;;;;;;;31.25;14.93;;;13.80;99.90;;;;;;10337905;28;20118;-62
2022/10/15 08:17:20;;;;;;;31.58;15.50;;;13.80;99.90;;;;;;10327753;28;20034;-65
2022/10/15 08:22:20;;;;;;;26.98;13.93;;;13.80;99.90;;;;;;10327202;28;20227;-64
2022/10/15 08:27:21;;;;;;;33.47;15.63;;;13.80;99.90;;;;;;10324633;28;20029;-63
2022/10/15 08:32:22;;;;;;;31.40;14.50;;;13.80;99.90;;;;;;10321928;28;20029;-63
2022/10/15 08:37:22;;;;;;;32.75;14.55;;;13.80;99.90;;;;;;10325157;28;20013;-66
2022/10/15 08:42:36;;;;;;;31.27;14.35;;;13.80;99.90;;;;;;10308991;28;20021;-65
2022/10/15 08:47:46;;;;;;;28.63;14.50;;;13.80;99.90;;;;;;10329429;28;20191;-63
2022/10/15 08:52:51;;;;;;;27.33;12.75;;;13.80;99.90;;;;;;10312982;28;20087;-66
2022/10/15 08:58:17;;;;;;;30.17;14.05;;;13.80;99.90;;;;;;10330949;28;20026;-62
2022/10/15 09:03:21;;;;;;;31.80;13.65;;;13.90;99.90;;;;;;10310701;28;20232;-67
2022/10/15 09:08:35;;;;;;;28.33;13.07;;;13.90;99.90;;;;;;10336675;28;20451;-64
2022/10/15 09:13:40;;;;;;;28.45;12.75;;;14.00;99.90;;;;;;10344520;28;21053;-63
2022/10/15 09:18:45;;;;;;;24.73;12.02;;;14.00;99.90;;;;;;10330009;28;20025;-63
2022/10/15 09:23:45;;;;;;;27.98;12.38;;;14.00;99.90;;;;;;10336255;28;20143;-63
2022/10/15 09:28:55;;;;;;;28.27;12.38;;;14.00;99.90;;;;;;10344017;28;20026;-64
2022/10/15 09:34:10;;;;;;;26.17;12.55;;;14.10;99.90;;;;;;10332308;28;20060;-64
2022/10/15 09:39:33;;;;;;;19.63;9.27;;;14.10;99.90;;;;;;10315428;28;20039;-63
2022/10/15 09:44:38;;;;;;;19.50;9.30;;;14.10;99.90;;;;;;10324535;28;20032;-65
2022/10/15 09:49:38;;;;;;;20.10;9.88;;;14.10;99.90;;;;;;10327366;28;20045;-62
2022/10/15 09:54:51;;;;;;;19.80;8.55;;;14.10;99.90;;;;;;10332443;28;20246;-66
2022/10/15 10:00:00;;;;;;;18.35;9.10;;;14.10;99.90;;;;;;10335189;28;20033;-65
2022/10/15 10:05:25;;;;;;;20.90;8.98;;;14.20;99.90;;;;;;10336926;28;20089;-62
2022/10/15 10:10:28;;;;;;;19.15;8.63;;;14.30;99.90;;;;;;10334080;28;20167;-62
2022/10/15 10:15:40;;;;;;;16.73;8.13;;;14.40;99.90;;;;;;10331410;28;20021;-62
2022/10/15 10:21:01;;;;;;;22.95;9.05;;;14.50;99.90;;;;;;10338350;28;20025;-62
2022/10/15 10:26:08;;;;;;;15.70;8.10;;;14.50;99.90;;;;;;10331676;28;20216;-62
2022/10/15 10:31:09;;;;;;;17.15;8.40;;;14.60;99.90;;;;;;10331607;28;20041;-62
2022/10/15 10:36:35;;;;;;;19.88;8.63;;;14.60;99.90;;;;;;10333727;28;20216;-62
2022/10/15 10:42:00;;;;;;;17.05;8.60;;;14.60;99.90;;;;;;10318326;28;20032;-63
2022/10/15 10:47:03;;;;;;;13.57;7.05;;;14.60;99.90;;;;;;10337132;28;20440;-63
2022/10/15 10:52:05;;;;;;;15.27;7.93;;;14.60;99.90;;;;;;10337763;28;20123;-62
2022/10/15 10:57:10;;;;;;;19.88;8.38;;;14.60;99.90;;;;;;10330964;28;20018;-62
2022/10/15 11:02:11;;;;;;;18.30;8.68;;;14.60;99.90;;;;;;10319865;28;20862;-63
2022/10/15 11:07:32;;;;;;;15.07;7.95;;;14.60;99.90;;;;;;10346617;28;20540;-62
2022/10/15 11:12:46;;;;;;;18.25;8.25;;;14.60;99.90;;;;;;10342554;28;20631;-63
2022/10/15 11:18:18;;;;;;;14.85;8.13;;;14.60;99.90;;;;;;10341462;28;20288;-63
2022/10/15 11:23:19;;;;;;;16.33;7.70;;;14.60;99.90;;;;;;10335496;28;20036;-63
2022/10/15 11:28:55;;;;;;;15.48;8.20;;;14.70;99.90;;;;;;10327919;28;20922;-63
2022/10/15 11:34:17;;;;;;;17.55;7.97;;;14.70;99.90;;;;;;10330007;28;21088;-62
2022/10/15 11:39:42;;;;;;;18.88;7.95;;;14.70;99.90;;;;;;10324446;28;20478;-62
2022/10/15 11:45:14;;;;;;;15.77;7.70;;;14.80;99.90;;;;;;10317592;28;20036;-62
2022/10/15 11:50:52;;;;;;;15.88;7.80;;;14.80;99.90;;;;;;10324706;28;20037;-64
2022/10/15 11:56:13;;;;;;;;;;;14.80;99.90;;;;;;10319969;28;20508;-63
2022/10/15 12:01:17;;;;;;;13.43;7.63;;;14.80;99.90;;;;;;10321131;28;19945;-63
2022/10/15 12:06:29;;;;;;;18.27;7.95;;;15.00;99.90;;;;;;10307977;28;20124;-64
2022/10/15 12:11:54;;;;;;;14.52;7.50;;;14.80;99.90;;;;;;10313745;28;20233;-63
2022/10/15 12:17:07;;;;;;;15.48;6.97;;;14.80;99.90;;;;;;10324570;28;20484;-63
2022/10/15 12:22:11;;;;;;;14.02;7.22;;;14.80;99.90;;;;;;10326448;28;20564;-62
2022/10/15 12:27:18;;;;;;;15.48;7.75;;;14.80;99.90;;;;;;10361681;28;20335;-63
2022/10/15 12:32:27;;;;;;;13.95;7.60;;;14.80;99.90;;;;;;10361633;28;20045;-61
2022/10/15 12:37:33;;;;;;;13.40;7.32;;;14.80;99.90;;;;;;10366183;28;20191;-62
2022/10/15 12:42:37;;;;;;;13.13;7.47;;;14.80;99.90;;;;;;10369778;28;20037;-65
2022/10/15 12:47:50;;;;;;;13.15;7.53;;;14.80;99.90;;;;;;10365959;28;20043;-62
2022/10/15 12:53:04;;;;;;;13.90;7.28;;;14.80;99.90;;;;;;10365614;28;20779;-62
2022/10/15 12:58:33;;;;;;;12.25;7.03;;;14.80;99.90;;;;;;10370413;28;20791;-63
2022/10/15 13:03:37;;;;;;;12.48;6.97;;;14.80;99.90;;;;;;10353698;28;20032;-64
2022/10/15 13:08:43;;;;;;;10.77;6.45;;;14.80;99.90;;;;;;10345970;28;20384;-63
2022/10/15 13:13:44;;;;;;;13.65;7.20;;;14.80;99.90;;;;;;10351723;28;20049;-62
2022/10/15 13:18:51;;;;;;;10.80;4.93;;;14.80;99.90;;;;;;10348919;28;20477;-61
2022/10/15 13:23:51;;;;;;;11.40;6.22;;;14.80;99.90;;;;;;10363686;28;20042;-64
2022/10/15 13:28:56;;;;;;;9.98;5.72;;;14.80;99.90;;;;;;10372768;28;20725;-63
2022/10/15 13:34:20;;;;;;;11.55;6.13;;;14.90;99.90;;;;;;10355961;28;20342;-63
2022/10/15 13:39:20;;;;;;;10.30;5.50;;;14.90;99.90;;;;;;10349622;28;20146;-63
2022/10/15 13:44:23;;;;;;;10.10;5.30;;;14.90;99.90;;;;;;10365487;28;20033;-63
2022/10/15 13:49:24;;;;;;;9.65;5.30;;;14.90;99.90;;;;;;10361743;28;20603;-64
2022/10/15 13:54:30;;;;;;;9.85;5.57;;;15.10;99.90;;;;;;10358534;28;20371;-63
2022/10/15 13:59:31;;;;;;;12.63;4.82;;;14.90;99.90;;;;;;10363039;28;20101;-63
2022/10/15 14:04:32;;;;;;;7.53;4.50;;;14.40;99.90;;;;;;10361683;28;20033;-63
2022/10/15 14:09:38;;;;;;;6.68;3.92;;;14.90;99.90;;;;;;10362570;28;20052;-64
2022/10/15 14:14:45;;;;;;;6.28;4.03;;;14.80;99.90;;;;;;10364010;28;20076;-64
2022/10/15 14:20:14;;;;;;;6.45;3.85;;;14.90;99.90;;;;;;10342161;28;20551;-62
2022/10/15 14:25:22;;;;;;;6.10;3.70;;;14.90;99.90;;;;;;10380193;28;20068;-63
2022/10/15 14:30:35;;;;;;;6.10;3.53;;;14.90;99.90;;;;;;10344772;28;20161;-62
2022/10/15 14:35:36;;;;;;;6.38;3.65;;;14.90;99.90;;;;;;10362520;28;20568;-63
2022/10/15 14:40:37;;;;;;;5.13;3.33;;;14.90;99.90;;;;;;10357588;28;20060;-62
2022/10/15 14:45:59;;;;;;;6.78;3.10;;;15.00;99.90;;;;;;10354159;28;20508;-61
2022/10/15 14:51:06;;;;;;;5.20;2.95;;;15.00;99.90;;;;;;10354995;28;20045;-63
2022/10/15 14:56:27;;;;;;;4.72;3.30;;;15.10;99.90;;;;;;10353269;28;20468;-62
2022/10/15 15:01:30;;;;;;;5.70;3.42;;;15.20;99.90;;;;;;10360569;28;20489;-63
2022/10/15 15:06:33;;;;;;;5.65;3.05;;;15.20;99.90;;;;;;10357039;28;20541;-62
2022/10/15 15:11:35;;;;;;;4.55;2.92;;;15.20;99.90;;;;;;10358202;28;20053;-62
2022/10/15 15:16:35;;;;;;;5.28;2.72;;;15.20;99.90;;;;;;10361760;28;20067;-62
2022/10/15 15:21:36;;;;;;;5.85;2.40;;;15.20;99.90;;;;;;10363708;28;20108;-65
2022/10/15 15:26:37;;;;;;;4.22;2.78;;;15.20;99.90;;;;;;10358617;28;20056;-62
2022/10/15 15:31:38;;;;;;;6.45;3.00;;;15.20;99.90;;;;;;10339990;28;20124;-63
2022/10/15 15:36:39;;;;;;;4.38;2.47;;;15.20;99.90;;;;;;10342116;28;20536;-64
2022/10/15 15:41:40;;;;;;;4.63;2.58;;;15.20;99.90;;;;;;10338883;28;20568;-64
2022/10/15 15:46:41;;;;;;;4.25;2.60;;;15.20;99.90;;;;;;10323897;28;20615;-63
2022/10/15 15:51:44;;;;;;;4.28;2.30;;;15.20;99.90;;;;;;10337396;28;20327;-69
2022/10/15 15:56:45;;;;;;;6.22;2.42;;;15.20;99.90;;;;;;10323902;28;20036;-61
2022/10/15 16:01:46;;;;;;;7.53;3.53;;;15.20;99.90;;;;;;10458793;23;20061;-65
2022/10/15 16:06:50;;;;;;;5.53;3.28;;;15.20;99.90;;;;;;10280296;28;20108;-64
2022/10/15 16:11:52;;;;;;;6.82;4.18;;;15.20;99.90;;;;;;10277634;28;20982;-63
2022/10/15 16:16:53;;;;;;;11.75;6.32;;;15.20;99.90;;;;;;10275152;28;20390;-63
2022/10/15 16:21:53;;;;;;;9.50;5.60;;;15.20;99.90;;;;;;10277191;28;20575;-64
2022/10/15 16:26:54;;;;;;;10.05;6.15;;;15.20;99.90;;;;;;10274325;28;20282;-64
2022/10/15 16:31:55;;;;;;;12.55;5.90;;;15.20;99.90;;;;;;10270639;28;20600;-63
2022/10/15 16:36:56;;;;;;;10.48;6.35;;;15.10;99.90;;;;;;10268512;28;20033;-64
2022/10/15 16:41:57;;;;;;;9.52;5.80;;;15.10;99.90;;;;;;10272281;28;20137;-63
2022/10/15 16:46:57;;;;;;;8.93;5.28;;;15.10;99.90;;;;;;10274045;28;20529;-63
2022/10/15 16:51:58;;;;;;;8.23;5.43;;;15.10;99.90;;;;;;10266880;28;20115;-64
2022/10/15 16:56:59;;;;;;;9.70;5.65;;;15.10;99.90;;;;;;10268158;28;20026;-67
2022/10/15 17:02:00;;;;;;;15.82;4.25;;;15.10;99.90;;;;;;10346761;23;20326;-64
2022/10/15 17:07:01;;;;;;;7.15;4.10;;;15.00;99.90;;;;;;10280638;28;20355;-62
2022/10/15 17:12:02;;;;;;;7.50;4.32;;;15.00;99.90;;;;;;10367265;28;20760;-62
2022/10/15 17:17:03;;;;;;;5.72;3.92;;;15.00;99.90;;;;;;10374862;28;20126;-62
2022/10/15 17:22:03;;;;;;;7.15;4.10;;;15.00;99.90;;;;;;10372105;28;20017;-63
2022/10/15 17:27:04;;;;;;;6.75;4.05;;;15.00;99.90;;;;;;10375978;28;20490;-67
2022/10/15 17:32:05;;;;;;;6.43;4.25;;;14.90;99.90;;;;;;10382270;28;20048;-62
2022/10/15 17:37:06;;;;;;;7.40;4.43;;;14.90;99.90;;;;;;10374788;28;20121;-65
2022/10/15 17:42:07;;;;;;;7.90;3.90;;;14.90;99.90;;;;;;10375830;28;20042;-66
2022/10/15 17:47:07;;;;;;;6.82;3.85;;;14.90;99.90;;;;;;10379760;28;20029;-62
2022/10/15 17:52:09;;;;;;;7.65;4.22;;;14.90;99.90;;;;;;10376194;28;20060;-62
2022/10/15 17:57:09;;;;;;;5.70;3.72;;;14.90;99.90;;;;;;10371278;28;20070;-61
2022/10/15 18:02:10;;;;;;;5.20;3.60;;;14.90;99.90;;;;;;10368777;28;20057;-62
2022/10/15 18:07:13;;;;;;;5.25;3.78;;;14.80;99.90;;;;;;10381356;28;20026;-62
2022/10/15 18:12:13;;;;;;;6.43;4.15;;;14.80;99.90;;;;;;10385056;28;20572;-63
2022/10/15 18:17:14;;;;;;;5.82;3.78;;;14.80;99.90;;;;;;10386236;28;20026;-62
2022/10/15 18:22:15;;;;;;;4.93;3.35;;;14.80;99.90;;;;;;10385211;28;20492;-67
2022/10/15 18:27:15;;;;;;;4.85;3.60;;;14.80;99.90;;;;;;10376020;28;20510;-62
2022/10/15 18:32:16;;;;;;;6.15;3.40;;;14.80;99.90;;;;;;10380950;28;20080;-68
2022/10/15 18:37:17;;;;;;;5.55;3.20;;;14.80;99.90;;;;;;10375615;28;20035;-65
2022/10/15 18:42:17;;;;;;;4.18;3.20;;;14.80;99.90;;;;;;10383758;28;20051;-67
2022/10/15 18:47:19;;;;;;;5.72;3.60;;;14.80;99.90;;;;;;10377677;28;20034;-67
2022/10/15 18:52:19;;;;;;;5.93;3.35;;;14.80;99.90;;;;;;10375266;28;20375;-62
2022/10/15 18:57:20;;;;;;;6.40;3.53;;;14.80;99.90;;;;;;10362881;28;20021;-63
2022/10/15 19:02:21;;;;;;;5.35;3.63;;;14.80;99.90;;;;;;10380507;28;20058;-66
2022/10/15 19:07:21;;;;;;;6.90;3.97;;;14.80;99.90;;;;;;10373287;28;20029;-68
2022/10/15 19:12:23;;;;;;;8.13;3.65;;;14.80;99.90;;;;;;10375905;28;20038;-63
2022/10/15 19:17:23;;;;;;;6.53;3.78;;;14.80;99.90;;;;;;10378219;28;20034;-63
2022/10/15 19:22:24;;;;;;;7.10;3.75;;;14.80;99.90;;;;;;10366192;28;20025;-63
2022/10/15 19:27:25;;;;;;;9.13;4.07;;;14.70;99.90;;;;;;10364088;28;20030;-63
2022/10/15 19:32:26;;;;;;;6.55;3.78;;;14.80;99.90;;;;;;10376597;28;20038;-64
2022/10/15 19:37:27;;;;;;;5.53;3.47;;;14.70;99.90;;;;;;10372673;28;20088;-63
2022/10/15 19:42:29;;;;;;;6.55;3.78;;;14.70;99.90;;;;;;10371932;28;20033;-62
2022/10/15 19:47:29;;;;;;;6.97;3.47;;;14.70;99.90;;;;;;10356252;28;20376;-62
2022/10/15 19:52:30;;;;;;;6.80;3.70;;;14.70;99.90;;;;;;10367405;28;20038;-62
2022/10/15 19:57:31;;;;;;;7.53;3.67;;;14.70;99.90;;;;;;10377072;28;20033;-61
2022/10/15 20:02:31;;;;;;;5.50;3.30;;;14.70;99.90;;;;;;10370479;28;20452;-62
2022/10/15 20:07:32;;;;;;;6.65;4.25;;;14.70;99.90;;;;;;10373648;28;20165;-62
2022/10/15 20:12:33;;;;;;;9.35;4.32;;;14.70;99.90;;;;;;10369102;28;20056;-61
2022/10/15 20:17:34;;;;;;;6.65;3.83;;;14.70;99.90;;;;;;10371395;28;20033;-61
2022/10/15 20:22:34;;;;;;;5.75;3.58;;;14.80;99.90;;;;;;10368625;28;20048;-61
2022/10/15 20:27:35;;;;;;;9.52;3.65;;;14.70;99.90;;;;;;10366425;28;20054;-61
2022/10/15 20:32:36;;;;;;;9.38;3.58;;;14.70;99.90;;;;;;10371036;28;20050;-61
2022/10/15 20:37:37;;;;;;;7.47;4.20;;;14.70;99.90;;;;;;10377172;28;20057;-63
2022/10/15 20:42:38;;;;;;;5.88;2.97;;;14.70;99.90;;;;;;10370483;28;20504;-61
2022/10/15 20:47:45;;;;;;;7.47;3.13;;;14.70;99.90;;;;;;10369383;28;20025;-61
2022/10/15 20:52:47;;;;;;;6.47;3.30;;;14.70;99.90;;;;;;10378396;28;20041;-61
2022/10/15 20:57:47;;;;;;;5.30;3.10;;;14.60;99.90;;;;;;10379762;28;20489;-61
2022/10/15 21:02:48;;;;;;;6.35;3.08;;;14.60;99.90;;;;;;10381719;28;20050;-61
2022/10/15 21:07:49;;;;;;;5.28;2.67;;;14.60;99.90;;;;;;10383397;28;20032;-61
2022/10/15 21:12:50;;;;;;;4.65;2.30;;;14.60;99.90;;;;;;10374676;28;20380;-61
2022/10/15 21:17:50;;;;;;;5.20;2.50;;;14.60;99.90;;;;;;10370677;28;20036;-62
2022/10/15 21:22:51;;;;;;;3.60;2.42;;;14.60;99.90;;;;;;10369684;28;20057;-62
2022/10/15 21:27:52;;;;;;;3.88;2.50;;;14.60;99.90;;;;;;10375997;28;20031;-61
2022/10/15 21:32:52;;;;;;;4.00;2.40;;;14.60;99.90;;;;;;10381784;28;20038;-62
2022/10/15 21:37:53;;;;;;;6.05;2.20;;;14.60;99.90;;;;;;10378812;28;20049;-61
2022/10/15 21:42:54;;;;;;;3.65;2.25;;;14.60;99.90;;;;;;10380483;28;20455;-62
2022/10/15 21:47:54;;;;;;;3.75;2.20;;;14.50;99.90;;;;;;10390980;28;20449;-62
2022/10/15 21:52:55;;;;;;;4.03;1.90;;;14.50;99.90;;;;;;10398289;28;20037;-62
2022/10/15 21:57:56;;;;;;;5.60;2.50;;;14.50;99.90;;;;;;10395865;28;20482;-65
2022/10/15 22:02:56;;;;;;;3.13;1.73;;;14.50;99.90;;;;;;10393377;28;20054;-62
2022/10/15 22:07:57;;;;;;;3.22;1.67;;;14.50;99.90;;;;;;10400645;28;20705;-65
2022/10/15 22:12:58;;;;;;;3.90;1.95;;;14.50;99.90;;;;;;10393396;28;20034;-62
2022/10/15 22:17:58;;;;;;;2.45;1.63;;;14.50;99.90;;;;;;10398900;28;20025;-63
2022/10/15 22:22:59;;;;;;;6.90;1.85;;;14.50;99.90;;;;;;10396245;28;20052;-62
2022/10/15 22:28:00;;;;;;;3.40;1.58;;;14.40;99.90;;;;;;10397274;28;20037;-64
2022/10/15 22:33:00;;;;;;;3.63;1.80;;;14.40;99.90;;;;;;10398272;28;20041;-62
2022/10/15 22:38:01;;;;;;;4.13;1.50;;;14.40;99.90;;;;;;10383171;28;20371;-62
2022/10/15 22:43:02;;;;;;;4.22;1.60;;;14.40;99.90;;;;;;10393311;28;20034;-61
2022/10/15 22:48:03;;;;;;;1.77;1.30;;;14.40;99.90;;;;;;10394279;28;20022;-64
2022/10/15 22:53:04;;;;;;;4.70;1.58;;;14.40;99.90;;;;;;10398948;28;20040;-62
2022/10/15 22:58:05;;;;;;;2.33;1.42;;;14.40;99.90;;;;;;10400812;28;20026;-64
2022/10/15 23:03:05;;;;;;;2.67;1.45;;;14.40;99.90;;;;;;10397006;28;20042;-64
2022/10/15 23:08:06;;;;;;;5.20;1.70;;;14.40;99.90;;;;;;10393921;28;20056;-62
2022/10/15 23:13:07;;;;;;;4.38;1.65;;;14.40;99.90;;;;;;10399211;28;20126;-62
2022/10/15 23:18:07;;;;;;;3.85;1.75;;;14.40;99.90;;;;;;10398854;28;20022;-62
2022/10/15 23:23:08;;;;;;;2.90;1.77;;;14.40;99.90;;;;;;10395156;28;20025;-62
2022/10/15 23:28:09;;;;;;;2.03;1.50;;;14.40;99.90;;;;;;10395312;28;20025;-62
2022/10/15 23:33:10;;;;;;;3.53;1.60;;;14.40;99.90;;;;;;10398234;28;20055;-64
2022/10/15 23:38:13;;;;;;;3.42;1.60;;;14.40;99.90;;;;;;10394279;28;20053;-62
2022/10/15 23:43:13;;;;;;;2.45;1.40;;;14.40;99.90;;;;;;10387819;28;20045;-63
2022/10/15 23:48:14;;;;;;;4.32;1.40;;;14.40;99.90;;;;;;10395371;28;20071;-62
2022/10/15 23:53:15;;;;;;;4.18;1.30;;;14.30;99.90;;;;;;10395836;28;20559;-62
2022/10/15 23:58:16;;;;;;;3.53;1.35;;;14.30;99.90;;;;;;10398839;28;20017;-62
